createdAt,value
2023-04-02T00:03:00.054Z,99738.93
2023-04-02T00:06:40.543Z,99741.55
2023-04-02T00:09:57.479Z,99748.58
2023-04-02T00:13:51.947Z,99754.83
2023-04-02T00:17:24.887Z,99770.13
2023-04-02T00:21:12.784Z,99767.85
2023-04-02T00:24:35.479Z,99772.90
2023-04-02T00:28:18.127Z,99771.14
2023-04-02T00:31:53.825Z,99775.73
2023-04-02T00:35:30.493Z,99772.34
2023-04-02T00:39:13.575Z,99775.42
2023-04-02T00:42:46.506Z,99778.91
2023-04-02T00:46:24.300Z,99782.16
2023-04-02T00:50:29.094Z,99787.46
2023-04-02T00:53:45.449Z,99790.45
2023-04-02T00:57:38.799Z,99797.10
2023-04-02T01:01:24.212Z,99793.77
2023-04-02T01:04:57.154Z,99797.96
2023-04-02T01:08:28.226Z,99801.95
2023-04-02T01:12:42.837Z,99807.44
2023-04-02T01:15:40.611Z,99808.21
2023-04-02T01:19:45.064Z,99808.41
2023-04-02T01:23:35.599Z,99813.69
2023-04-02T01:27:24.801Z,99811.64
2023-04-02T01:31:06.475Z,99811.75
2023-04-02T01:34:36.455Z,99815.33
2023-04-02T01:38:25.923Z,99817.94
2023-04-02T01:42:17.338Z,99818.05
2023-04-02T01:45:48.502Z,99822.09
2023-04-02T01:49:27.281Z,99820.67
2023-04-02T01:53:03.752Z,99821.66
2023-04-02T01:56:47.334Z,99824.30
2023-04-02T02:00:37.638Z,99825.27
2023-04-02T02:04:11.212Z,99830.41
2023-04-02T02:07:57.442Z,99830.84
2023-04-02T02:11:42.438Z,99837.38
2023-04-02T02:15:45.103Z,99840.73
2023-04-02T02:19:23.005Z,99842.11
2023-04-02T02:22:44.196Z,99848.14
2023-04-02T02:26:29.204Z,99849.70
2023-04-02T02:30:18.308Z,99854.27
2023-04-02T02:34:06.324Z,99858.16
2023-04-02T02:37:52.388Z,99857.62
2023-04-02T02:41:42.914Z,99864.83
2023-04-02T02:45:31.258Z,99871.42
2023-04-02T02:49:07.640Z,99874.23
2023-04-02T02:53:05.643Z,99879.69
2023-04-02T02:56:18.811Z,99880.19
2023-04-02T03:00:06.882Z,99888.60
2023-04-02T03:03:51.589Z,99899.83
2023-04-02T03:07:40.468Z,99902.42
2023-04-02T03:11:17.594Z,99900.70
2023-04-02T03:15:06.989Z,99904.77
2023-04-02T03:19:23.610Z,99908.81
2023-04-02T03:22:35.424Z,99912.91
2023-04-02T03:26:24.649Z,99913.52
2023-04-02T03:30:09.104Z,99916.52
2023-04-02T03:33:49.119Z,99919.67
2023-04-02T03:37:19.045Z,99926.63
2023-04-02T03:41:01.898Z,99931.86
2023-04-02T03:44:31.601Z,99936.38
2023-04-02T03:48:19.779Z,99941.78
2023-04-02T03:52:25.794Z,99948.94
2023-04-02T03:55:52.638Z,99955.59
2023-04-02T03:59:50.345Z,99964.71
2023-04-02T04:02:59.271Z,99966.64
2023-04-02T04:06:46.560Z,99976.27
2023-04-02T04:10:32.078Z,99978.86
2023-04-02T04:14:31.604Z,99985.59
2023-04-02T04:18:02.435Z,99987.98
2023-04-02T04:21:57.995Z,99988.36
2023-04-02T04:25:44.592Z,99992.07
2023-04-02T04:29:27.506Z,99997.58
2023-04-02T04:32:58.282Z,100002.83
2023-04-02T04:36:29.105Z,100006.05
2023-04-02T04:40:23.867Z,100010.23
2023-04-02T04:44:23.416Z,100014.74
2023-04-02T04:48:06.863Z,100017.90
2023-04-02T04:51:29.068Z,100023.62
2023-04-02T04:55:07.077Z,100028.80
2023-04-02T04:58:52.166Z,100040.71
2023-04-02T05:02:18.824Z,100042.58
2023-04-02T05:06:19.021Z,100042.02
2023-04-02T05:09:45.436Z,100046.70
2023-04-02T05:13:34.240Z,100052.58
2023-04-02T05:17:21.035Z,100060.95
2023-04-02T05:20:39.133Z,100067.39
2023-04-02T05:25:01.605Z,100071.91
2023-04-02T05:28:55.807Z,100074.96
2023-04-02T05:32:41.460Z,100079.02
2023-04-02T05:36:24.475Z,100089.08
2023-04-02T05:40:22.522Z,100098.64
2023-04-02T05:44:04.048Z,100108.04
2023-04-02T05:47:24.346Z,100113.89
2023-04-02T05:50:52.384Z,100119.14
2023-04-02T05:54:23.843Z,100121.98
2023-04-02T06:01:40.427Z,100131.56
2023-04-02T06:05:16.867Z,100131.55
2023-04-02T06:08:54.160Z,100135.46
2023-04-02T06:12:42.760Z,100138.79
2023-04-02T06:16:30.400Z,100136.95
2023-04-02T06:20:15.863Z,100147.84
2023-04-02T06:23:37.360Z,100161.99
2023-04-02T06:27:28.204Z,100169.48
2023-04-02T06:30:47.909Z,100176.39
2023-04-02T06:34:33.206Z,100184.11
2023-04-02T06:38:25.322Z,100190.33
2023-04-02T06:42:28.351Z,100194.02
2023-04-02T06:45:49.578Z,100189.78
2023-04-02T06:49:30.774Z,100184.48
2023-04-02T06:53:10.151Z,100184.05
2023-04-02T06:56:46.714Z,100191.08
2023-04-02T07:00:27.457Z,100192.28
2023-04-02T07:03:54.397Z,100200.02
2023-04-02T07:07:48.124Z,100211.02
2023-04-02T07:11:26.306Z,100216.70
2023-04-02T07:15:00.115Z,100218.69
2023-04-02T07:18:46.553Z,100229.92
2023-04-02T07:22:22.998Z,100230.54
2023-04-02T07:26:10.711Z,100237.63
2023-04-02T07:29:55.132Z,100247.91
2023-04-02T07:33:42.134Z,100253.44
2023-04-02T07:37:20.838Z,100259.70
2023-04-02T07:40:52.997Z,100260.19
2023-04-02T07:44:37.622Z,100268.39
2023-04-02T07:48:22.125Z,100273.89
2023-04-02T07:52:15.737Z,100275.64
2023-04-02T07:55:44.492Z,100278.83
2023-04-02T07:59:36.891Z,100283.14
2023-04-02T08:03:07.034Z,100281.38
2023-04-02T08:06:53.032Z,100282.21
2023-04-02T08:10:38.618Z,100285.60
2023-04-02T08:14:15.166Z,100290.70
2023-04-02T08:17:58.784Z,100291.95
2023-04-02T08:21:43.284Z,100308.36
2023-04-02T08:25:28.880Z,100317.75
2023-04-02T08:29:13.632Z,100319.38
2023-04-02T08:32:42.128Z,100318.73
2023-04-02T08:36:30.689Z,100320.98
2023-04-02T08:40:24.051Z,100321.59
2023-04-02T08:44:38.779Z,100332.25
2023-04-02T08:48:00.335Z,100336.31
2023-04-02T08:51:27.923Z,100344.73
2023-04-02T08:55:01.627Z,100354.24
2023-04-02T08:58:48.285Z,100361.11
2023-04-02T09:02:47.076Z,100367.45
2023-04-02T09:06:16.446Z,100371.02
2023-04-02T09:09:48.612Z,100368.21
2023-04-02T09:13:38.944Z,100374.39
2023-04-02T09:17:20.083Z,100377.83
2023-04-02T09:20:49.407Z,100383.52
2023-04-02T09:24:33.906Z,100383.89
2023-04-02T09:28:20.440Z,100381.04
2023-04-02T09:32:01.154Z,100382.66
2023-04-02T09:36:03.046Z,100383.33
2023-04-02T09:39:26.383Z,100390.32
2023-04-02T09:43:15.846Z,100389.06
2023-04-02T09:47:28.186Z,100393.23
2023-04-02T09:50:46.240Z,100397.27
2023-04-02T09:54:33.412Z,100397.55
2023-04-02T09:58:12.232Z,100403.20
2023-04-02T10:01:34.259Z,100405.31
2023-04-02T10:05:39.387Z,100411.73
2023-04-02T10:08:48.545Z,100420.11
2023-04-02T10:12:39.609Z,100422.03
2023-04-02T10:16:05.014Z,100433.10
2023-04-02T10:19:51.873Z,100435.15
2023-04-02T10:23:37.651Z,100439.70
2023-04-02T10:27:26.215Z,100442.13
2023-04-02T10:31:13.655Z,100445.14
2023-04-02T10:35:01.832Z,100451.79
2023-04-02T10:38:51.021Z,100456.52
2023-04-02T10:42:40.272Z,100463.21
2023-04-02T10:46:18.770Z,100460.84
2023-04-02T10:50:31.224Z,100466.44
2023-04-02T10:53:45.355Z,100467.90
2023-04-02T10:57:40.641Z,100479.70
2023-04-02T11:01:29.409Z,100488.81
2023-04-02T11:05:20.186Z,100502.52
2023-04-02T11:09:07.443Z,100502.56
2023-04-02T11:12:57.859Z,100502.86
2023-04-02T11:16:29.890Z,100508.61
2023-04-02T11:20:58.344Z,100509.61
2023-04-02T11:25:22.013Z,100515.94
2023-04-02T11:28:30.611Z,100525.41
2023-04-02T11:32:28.325Z,100535.91
2023-04-02T11:36:47.507Z,100543.16
2023-04-02T11:40:54.427Z,100547.48
2023-04-02T11:44:25.196Z,100551.83
2023-04-02T11:48:33.417Z,100561.54
2023-04-02T11:51:56.396Z,100563.91
2023-04-02T11:55:24.518Z,100571.77
2023-04-02T11:58:54.273Z,100577.81
2023-04-02T12:02:42.875Z,100579.11
2023-04-02T12:06:59.279Z,100583.14
2023-04-02T12:10:23.344Z,100585.11
2023-04-02T12:13:58.551Z,100593.05
2023-04-02T12:17:45.042Z,100596.61
2023-04-02T12:21:47.629Z,100599.65
2023-04-02T12:25:03.961Z,100604.55
2023-04-02T12:28:50.935Z,100605.86
2023-04-02T12:32:23.227Z,100609.36
2023-04-02T12:36:16.683Z,100611.73
2023-04-02T12:40:07.438Z,100611.55
2023-04-02T12:43:49.850Z,100616.30
2023-04-02T12:47:32.706Z,100619.68
2023-04-02T12:51:20.734Z,100630.27
2023-04-02T12:54:56.485Z,100639.16
2023-04-02T12:58:42.853Z,100635.59
2023-04-02T13:02:45.589Z,100632.52
2023-04-02T13:06:32.611Z,100636.92
2023-04-02T13:09:46.298Z,100650.38
2023-04-02T13:13:48.475Z,100648.54
2023-04-02T13:17:39.036Z,100647.83
2023-04-02T13:21:38.364Z,100649.86
2023-04-02T13:25:01.221Z,100649.05
2023-04-02T13:28:51.792Z,100651.48
2023-04-02T13:32:36.372Z,100653.95
2023-04-02T13:36:15.753Z,100663.02
2023-04-02T13:39:58.337Z,100666.45
2023-04-02T13:43:53.360Z,100676.75
2023-04-02T13:47:20.810Z,100678.63
2023-04-02T13:51:04.728Z,100676.80
2023-04-02T13:54:55.435Z,100681.10
2023-04-02T13:58:41.851Z,100685.40
2023-04-02T14:02:17.712Z,100681.77
2023-04-02T14:05:49.484Z,100674.73
2023-04-02T14:09:28.890Z,100675.31
2023-04-02T14:13:09.257Z,100676.59
2023-04-02T14:17:03.209Z,100685.73
2023-04-02T14:20:54.615Z,100701.77
2023-04-02T14:24:48.663Z,100710.77
2023-04-02T14:28:22.346Z,100719.92
2023-04-02T14:32:09.883Z,100725.16
2023-04-02T14:36:16.740Z,100729.89
2023-04-02T14:39:46.577Z,100731.51
2023-04-02T14:43:12.181Z,100737.49
2023-04-02T14:47:00.299Z,100744.23
2023-04-02T14:50:45.627Z,100746.41
2023-04-02T14:54:34.958Z,100753.50
2023-04-02T14:58:11.361Z,100758.64
2023-04-02T15:02:00.289Z,100758.42
2023-04-02T15:05:39.631Z,100766.90
2023-04-02T15:09:11.749Z,100770.33
2023-04-02T15:12:58.211Z,100776.41
2023-04-02T15:17:11.236Z,100780.84
2023-04-02T15:20:22.253Z,100783.90
2023-04-02T15:24:21.741Z,100788.40
2023-04-02T15:27:56.138Z,100790.98
2023-04-02T15:31:22.480Z,100794.44
2023-04-02T15:35:36.609Z,100797.16
2023-04-02T15:38:47.100Z,100803.17
2023-04-02T15:42:34.402Z,100809.52
2023-04-02T15:46:51.772Z,100811.19
2023-04-02T15:50:23.207Z,100819.20
2023-04-02T15:53:38.986Z,100820.98
2023-04-02T15:57:39.872Z,100831.65
2023-04-02T16:01:09.837Z,100836.19
2023-04-02T16:05:00.893Z,100839.52
2023-04-02T16:08:40.867Z,100850.13
2023-04-02T16:12:17.347Z,100848.77
2023-04-02T16:15:50.684Z,100866.48
2023-04-02T16:19:30.292Z,100878.68
2023-04-02T16:23:07.065Z,100888.27
2023-04-02T16:26:59.415Z,100890.80
2023-04-02T16:30:40.091Z,100893.30
2023-04-02T16:34:17.175Z,100897.14
2023-04-02T16:37:44.191Z,100898.18
2023-04-02T16:41:23.685Z,100901.81
2023-04-02T16:44:58.585Z,100905.36
2023-04-02T16:48:55.045Z,100905.08
2023-04-02T16:52:35.460Z,100911.84
2023-04-02T16:56:12.997Z,100920.15
2023-04-02T16:59:45.549Z,100921.61
2023-04-02T17:03:26.316Z,100926.14
2023-04-02T17:07:15.321Z,100934.91
2023-04-02T17:11:02.939Z,100945.23
2023-04-02T17:14:50.936Z,100952.95
2023-04-02T17:18:52.701Z,100956.83
2023-04-02T17:22:18.200Z,100958.94
2023-04-02T17:26:07.144Z,100963.81
2023-04-02T17:30:21.789Z,100970.56
2023-04-02T17:33:46.341Z,100975.23
2023-04-02T17:37:38.256Z,100982.81
2023-04-02T17:40:52.117Z,100988.51
2023-04-02T17:44:48.425Z,100989.54
2023-04-02T17:48:17.925Z,100988.13
2023-04-02T17:52:17.465Z,100996.75
2023-04-02T17:55:44.553Z,101000.88
2023-04-02T17:59:38.857Z,101002.43
2023-04-02T18:03:31.495Z,101004.62
2023-04-02T18:06:51.650Z,101011.34
2023-04-02T18:10:27.243Z,101020.15
2023-04-02T18:14:25.090Z,101019.05
2023-04-02T18:18:15.048Z,101023.95
2023-04-02T18:22:04.060Z,101026.44
2023-04-02T18:26:02.238Z,101031.44
2023-04-02T18:29:34.204Z,101031.75
2023-04-02T18:33:49.584Z,101037.45
2023-04-02T18:37:05.563Z,101044.39
2023-04-02T18:41:01.103Z,101050.78
2023-04-02T18:44:54.744Z,101054.95
2023-04-02T18:48:46.877Z,101056.14
2023-04-02T18:52:16.799Z,101057.85
2023-04-02T18:56:06.109Z,101065.61
2023-04-02T18:59:52.932Z,101067.38
2023-04-02T19:03:41.109Z,101063.79
2023-04-02T19:07:26.801Z,101073.84
2023-04-02T19:11:16.745Z,101072.27
2023-04-02T19:14:51.981Z,101076.59
2023-04-02T19:18:53.616Z,101080.56
2023-04-02T19:22:31.610Z,101088.65
2023-04-02T19:26:17.233Z,101088.70
2023-04-02T19:30:38.665Z,101088.36
2023-04-02T19:33:46.056Z,101096.30
2023-04-02T19:37:38.445Z,101096.64
2023-04-02T19:40:58.838Z,101098.89
2023-04-02T19:44:32.596Z,101100.47
2023-04-02T19:48:49.477Z,101106.52
2023-04-02T19:51:55.960Z,101107.52
2023-04-02T19:55:32.776Z,101110.09
2023-04-02T19:59:17.663Z,101110.13
2023-04-02T20:03:02.801Z,101110.46
2023-04-02T20:07:03.706Z,101110.82
2023-04-02T20:10:26.370Z,101107.50
2023-04-02T20:14:01.832Z,101113.89
2023-04-02T20:17:56.413Z,101117.52
2023-04-02T20:21:28.043Z,101118.79
2023-04-02T20:25:02.708Z,101120.36
2023-04-02T20:28:40.998Z,101119.34
2023-04-02T20:32:43.075Z,101118.51
2023-04-02T20:35:56.833Z,101127.67
2023-04-02T20:39:30.761Z,101132.49
2023-04-02T20:43:15.336Z,101140.57
2023-04-02T20:47:03.099Z,101146.58
2023-04-02T20:50:38.021Z,101145.75
2023-04-02T20:54:23.272Z,101158.54
2023-04-02T20:58:08.653Z,101164.23
2023-04-02T21:01:53.198Z,101164.90
2023-04-02T21:05:54.834Z,101162.80
2023-04-02T21:09:17.388Z,101161.27
2023-04-02T21:13:01.742Z,101162.50
2023-04-02T21:16:56.062Z,101165.25
2023-04-02T21:20:22.924Z,101165.94
2023-04-02T21:24:07.438Z,101168.55
2023-04-02T21:27:51.961Z,101166.00
2023-04-02T21:31:37.179Z,101167.92
2023-04-02T21:35:38.541Z,101171.25
2023-04-02T21:39:03.044Z,101172.66
2023-04-02T21:42:45.090Z,101175.63
2023-04-02T21:46:30.405Z,101175.30
2023-04-02T21:49:52.759Z,101180.34
2023-04-02T21:53:35.712Z,101182.27
2023-04-02T21:57:20.403Z,101181.11
2023-04-02T22:01:07.139Z,101185.86
2023-04-02T22:05:10.539Z,101186.77
2023-04-02T22:08:31.443Z,101185.77
2023-04-02T22:12:17.096Z,101187.70
2023-04-02T22:15:53.553Z,101194.31
2023-04-02T22:19:36.006Z,101197.48
2023-04-02T22:23:20.647Z,101201.15
2023-04-02T22:27:15.106Z,101205.33
2023-04-02T22:30:46.350Z,101213.86
2023-04-02T22:34:21.469Z,101219.95
2023-04-02T22:37:57.407Z,101221.85
2023-04-02T22:41:41.882Z,101228.44
2023-04-02T22:45:27.325Z,101228.45
2023-04-02T22:49:04.637Z,101231.61
2023-04-02T22:52:59.104Z,101231.45
2023-04-02T22:56:37.683Z,101230.22
2023-04-02T23:00:06.375Z,101234.22
2023-04-02T23:03:53.667Z,101232.16
2023-04-02T23:07:20.160Z,101231.69
2023-04-02T23:11:22.816Z,101232.55
2023-04-02T23:14:42.282Z,101232.40
2023-04-02T23:18:26.826Z,101232.95
2023-04-02T23:22:21.470Z,101238.17
2023-04-02T23:25:49.136Z,101234.06
2023-04-02T23:29:51.339Z,101238.90
2023-04-02T23:33:09.311Z,101239.27
2023-04-02T23:36:53.959Z,101245.86
2023-04-02T23:41:03.277Z,101250.05
2023-04-02T23:44:16.118Z,101255.95
2023-04-02T23:47:58.431Z,101261.67
2023-04-02T23:51:41.519Z,101259.95
2023-04-02T23:55:26.864Z,101268.80
2023-04-02T23:59:03.715Z,101270.21
